ADDS METAR Data INFO
IDs: Format: Raw Decoded Include TAF

Data at: 0805 UTC 23 Jul 2018

KAAA 230755Z AUTO 00000KT 7SM CLR 19/18 A2994 RMK AO2 T01850182
KAAA 230735Z AUTO 00000KT 7SM CLR 19/19 A2994 RMK AO2 T01870185
KAAA 230715Z AUTO 00000KT 10SM CLR 19/19 A2994 RMK AO2 T01890185
KAAA 230655Z AUTO 00000KT 10SM CLR 19/19 A2994 RMK AO2 T01910187
KAAA 230635Z AUTO 36003KT 10SM CLR 19/19 A2993 RMK AO2 T01910190
KAAA 230615Z AUTO 36004KT 10SM CLR 20/19 A2994 RMK AO2 T01950191
KAAA 230555Z AUTO 35003KT 10SM CLR 20/19 A2994 RMK AO2 T01960193 10245 20196 402510191
KAAA 230535Z AUTO 35004KT 10SM CLR 20/20 A2994 RMK AO2 T01960195
KAAA 230515Z AUTO 34003KT 10SM CLR 20/20 A2994 RMK AO2 T01980195
KAAA 230455Z AUTO 35003KT 10SM CLR 20/20 A2993 RMK AO2 T01980196
KAAA 230435Z AUTO 36004KT 10SM CLR 20/20 A2993 RMK AO2 T02000196
KAAA 230415Z AUTO 36003KT 10SM SCT065 20/20 A2994 RMK AO2 T02030197
KAAA 230355Z AUTO 01005KT 10SM BKN070 BKN075 21/20 A2993 RMK AO2 T02080200
KAAA 230335Z AUTO 36005KT 10SM BKN070 OVC080 22/20 A2993 RMK AO2 T02150198
KAAA 230315Z AUTO 36003KT 10SM OVC090 22/20 A2993 RMK AO2 T02170196
KAAA 230255Z AUTO 35006KT 10SM SCT018 OVC090 22/20 A2994 RMK AO2 T02170201
KAAA 230235Z AUTO 00000KT 10SM BKN020 BKN029 OVC110 21/20 A2994 RMK AO2 T02120201
KAAA 230215Z AUTO 00000KT 10SM BKN065 22/20 A2993 RMK AO2 T02150200
KAAA 230155Z AUTO 00000KT 10SM SCT041 BKN065 22/20 A2993 RMK AO2 T02170200
KAAA 230135Z AUTO 00000KT 10SM BKN065 22/20 A2992 RMK AO2 T02210201
KAAA 230115Z AUTO 32003KT 10SM SCT065 23/20 A2992 RMK AO2 T02260201
KAAA 230055Z AUTO 36004KT 10SM SCT021 SCT055 23/20 A2991 RMK AO2 T02300201
KAAA 230035Z AUTO 36007KT 10SM BKN021 BKN028 24/20 A2991 RMK AO2 T02370201
KAAA 230015Z AUTO 34007KT 300V360 10SM SCT023 BKN031 24/20 A2991 RMK AO2 T02370202
KAAA 222355Z AUTO 34006KT 10SM BKN025 OVC031 25/20 A2990 RMK AO2 T02460202 10251 20230
KAAA 222335Z AUTO 34007KT 10SM BKN023 BKN029 BKN034 24/20 A2989 RMK AO2 T02420200
KAAA 222315Z AUTO 34007KT 10SM BKN021 25/20 A2989 RMK AO2 T02500200
KAAA 222255Z AUTO 33007G17KT 280V360 10SM SCT019 SCT025 25/20 A2989 RMK AO2 T02500202
KAAA 222235Z AUTO 33007G18KT 300V360 10SM BKN019 25/20 A2989 RMK AO2 T02470201
KAAA 222215Z AUTO 34009G16KT 310V010 10SM OVC019 25/20 A2988 RMK AO2 T02460202
KAAA 222155Z AUTO 34007KT 310V020 10SM SCT019 BKN025 BKN050 24/20 A2989 RMK AO2 LTG DSNT E AND SE T02430202
KAAA 222135Z AUTO 32007KT 200V010 10SM SCT020 BKN025 BKN048 25/20 A2988 RMK AO2 T02510203
KAAA 222115Z AUTO 35009G15KT 10SM SCT019 BKN024 OVC047 24/20 A2988 RMK AO2 T02410199
KAAA 222055Z AUTO 35010KT 10SM BKN019 OVC027 24/20 A2989 RMK AO2 T02410201
KAAA 222035Z AUTO 33007G14KT 290V360 10SM SCT019 BKN033 OVC065 25/20 A2989 RMK AO2 T02450202
KAAA 222015Z AUTO 33007KT 300V360 10SM SCT031 SCT042 OVC055 24/20 A2988 RMK AO2 T02390201
KAAA 221955Z AUTO 34006KT 10SM SCT019 SCT035 OVC055 24/20 A2989 RMK AO2 T02400199
KAAA 221935Z AUTO 32006KT 10SM SCT019 BKN036 OVC046 24/20 A2989 RMK AO2 T02350195
KAAA 221915Z AUTO 35006KT 10SM SCT019 BKN037 OVC046 24/20 A2989 RMK AO2 T02370195
KAAA 221855Z AUTO 34007KT 310V020 10SM SCT019 BKN041 OVC047 24/19 A2989 RMK AO2 T02350194
KAAA 221835Z AUTO 35008KT 10SM SCT021 BKN030 OVC041 24/20 A2988 RMK AO2 T02350196
KAAA 221815Z AUTO 36009G14KT 10SM BKN021 BKN035 OVC043 24/20 A2988 RMK AO2 T02420199
KAAA 221755Z AUTO 36008KT 10SM SCT021 BKN034 OVC042 24/20 A2989 RMK AO2 T02370198 10247 20198
KAAA 221735Z AUTO 36006G14KT 10SM SCT021 BKN036 OVC047 24/20 A2989 RMK AO2 T02410196
KAAA 221715Z AUTO 36006KT 10SM SCT019 SCT029 OVC045 24/20 A2988 RMK AO2 T02400197
KAAA 221655Z AUTO 36008G16KT 10SM SCT021 BKN042 OVC049 24/20 A2988 RMK AO2 T02370196
KAAA 221635Z AUTO 35010G15KT 10SM BKN021 BKN028 OVC050 24/20 A2988 RMK AO2 T02400199
KAAA 221615Z AUTO 01010G14KT 10SM BKN021 BKN032 OVC043 25/20 A2988 RMK AO2 T02450199
KAAA 221555Z AUTO 35007G16KT 10SM BKN019 OVC026 25/20 A2988 RMK AO2 T02450200
KAAA 221535Z AUTO 35011G15KT 10SM BKN017 BKN022 OVC026 25/21 A2988 RMK AO2 T02460205
KAAA 221515Z AUTO 36012KT 10SM BKN017 OVC027 24/20 A2987 RMK AO2 T02390201
KAAA 221455Z AUTO 35007KT 10SM OVC015 23/20 A2988 RMK AO2 T02250196
KAAA 221435Z AUTO 34005KT 10SM BKN015 OVC022 23/20 A2988 RMK AO2 T02270200
KAAA 221415Z AUTO 34007KT 10SM BKN015 OVC024 22/20 A2988 RMK AO2 T02220198
KAAA 221355Z AUTO 34003KT 10SM OVC013 22/20 A2988 RMK AO2 T02150196
KAAA 221335Z AUTO 34004KT 10SM OVC011 22/20 A2988 RMK AO2 T02150195
KAAA 221315Z AUTO 34006KT 10SM OVC011 21/20 A2988 RMK AO2 T02110195
KAAA 221255Z AUTO 33003KT 10SM BKN009 OVC013 21/20 A2987 RMK AO2 T02050195
KAAA 221235Z AUTO 31003KT 10SM OVC009 20/19 A2988 RMK AO2 T02020194
KAAA 221215Z AUTO 31003KT 10SM OVC009 20/19 A2987 RMK AO2 T01990191
KAAA 221155Z AUTO 31003KT 10SM OVC009 20/19 A2986 RMK AO2 T01990191 10200 20191
KAAA 221135Z AUTO 31003KT 10SM BKN011 BKN031 20/19 A2986 RMK AO2 T01970190
KAAA 221115Z AUTO 33003KT 10SM SCT011 BKN029 20/19 A2986 RMK AO2 T01980190
KAAA 221055Z AUTO 33003KT 10SM SCT011 OVC029 20/19 A2985 RMK AO2 T01980191
KAAA 221035Z AUTO 34004KT 10SM SCT013 OVC027 20/19 A2985 RMK AO2 T01970191
KAAA 221015Z AUTO 32004KT 10SM SCT012 OVC027 19/19 A2985 RMK AO2 T01940190
KAAA 220955Z AUTO 31003KT 10SM SCT012 BKN027 19/19 A2984 RMK AO2 T01910188
KAAA 220935Z AUTO 31003KT 10SM BKN012 BKN032 19/19 A2984 RMK AO2 T01920188
KAAA 220915Z AUTO 32004KT 10SM SCT012 BKN032 19/19 A2984 RMK AO2 T01920189
KAAA 220855Z AUTO 31004KT 10SM SCT012 19/19 A2984 RMK AO2 T01930190
KAAA 220835Z AUTO 33003KT 10SM CLR 20/19 A2985 RMK AO2 T01950190
KAAA 220815Z AUTO 00000KT 10SM CLR 20/19 A2984 RMK AO2 T01960190
KAAA 220755Z AUTO 33004KT 10SM CLR 20/19 A2985 RMK AO2 T01970190
KAAA 220735Z AUTO 34004KT 10SM SCT014 SCT050 20/19 A2985 RMK AO2 T01970191
KAAA 220715Z AUTO 33004KT 10SM SCT014 SCT030 SCT050 20/19 A2985 RMK AO2 T01980192
KAAA 220655Z AUTO 00000KT 10SM SCT014 20/19 A2984 RMK AO2 T01970192
KAAA 220635Z AUTO 00000KT 10SM SCT014 20/19 A2985 RMK AO2 T01980194
KAAA 220615Z AUTO 31003KT 10SM CLR 20/19 A2986 RMK AO2 T01990194
KAAA 220555Z AUTO 00000KT 10SM CLR 20/20 A2986 RMK AO2 T02000195 10270 20200 402800196
KAAA 220535Z AUTO 00000KT 10SM CLR 20/20 A2986 RMK AO2 T02030196
KAAA 220515Z AUTO 00000KT 10SM CLR 20/20 A2986 RMK AO2 T02030196
KAAA 220435Z AUTO 31004KT 10SM CLR 21/20 A2986 RMK AO2 T02060198
KAAA 220415Z AUTO 33003KT 10SM CLR 21/20 A2985 RMK AO2 T02100200
KAAA 220355Z AUTO 33003KT 10SM CLR 21/20 A2986 RMK AO2 T02100201
KAAA 220335Z AUTO 00000KT 10SM CLR 21/20 A2986 RMK AO2 T02100203
KAAA 220315Z AUTO 00000KT 10SM SCT070 SCT090 BKN110 21/20 A2986 RMK AO2 T02140203
KAAA 220255Z AUTO 35005KT 7SM -RA BKN040 BKN055 OVC080 22/21 A2986 RMK AO2 T02170205
KAAA 220235Z AUTO 02009KT 10SM BKN043 BKN050 OVC065 24/20 A2986 RMK AO2 T02350200
KAAA 220215Z AUTO 00000KT 10SM SCT050 BKN065 24/20 A2985 RMK AO2 T02410198
KAAA 220155Z AUTO 30003KT 10SM SCT050 SCT065 24/20 A2985 RMK AO2 T02430198
KAAA 220135Z AUTO 30003KT 10SM CLR 25/20 A2984 RMK AO2 T02460200
KAAA 220115Z AUTO 29004KT 10SM CLR 25/20 A2984 RMK AO2 T02510198
KAAA 220055Z AUTO 31005KT 10SM CLR 26/20 A2984 RMK AO2 T02550200
KAAA 220035Z AUTO 31004KT 10SM CLR 26/20 A2983 RMK AO2 T02620200
KAAA 220015Z AUTO 32003KT 10SM CLR 27/20 A2983 RMK AO2 T02660198
KAAA 212355Z AUTO 33006KT 10SM CLR 27/20 A2983 RMK AO2 T02700200 10280 20244
KAAA 212335Z AUTO 32006KT 10SM CLR 27/20 A2983 RMK AO2 T02720200
KAAA 212315Z AUTO 33004KT 10SM SCT036 SCT046 SCT050 27/20 A2983 RMK AO2 T02730200
KAAA 212255Z AUTO 32007G17KT 280V360 10SM SCT034 BKN043 BKN050 28/21 A2984 RMK AO2 T02790206
KAAA 212235Z AUTO 32005KT 10SM SCT034 BKN080 28/21 A2984 RMK AO2 T02750205
KAAA 212215Z AUTO 31005G17KT 10SM SCT031 SCT037 BKN080 27/21 A2984 RMK AO2 T02740207
KAAA 212155Z AUTO 32009G17KT 290V350 10SM SCT031 SCT040 BKN070 27/20 A2984 RMK AO2 T02710201
KAAA 212135Z AUTO 30006G19KT 10SM SCT029 SCT042 OVC070 27/21 A2984 RMK AO2 T02710205
KAAA 212115Z AUTO 31010G18KT 280V340 10SM SCT027 SCT032 BKN070 27/20 A2984 RMK AO2 T02650202
KAAA 212055Z AUTO 31008KT 10SM SCT028 BKN060 27/20 A2984 RMK AO2 T02700204
KAAA 212035Z AUTO 31006KT 10SM OVC060 27/21 A2984 RMK AO2 T02680206
KAAA 212015Z AUTO 30007G14KT 230V330 10SM SCT028 BKN046 OVC050 26/20 A2984 RMK AO2 T02620201